createdAt,value
2022-09-14T00:01:40.190Z,8.20
2022-09-14T00:04:14.470Z,7.43
2022-09-14T00:06:43.357Z,8.63
2022-09-14T00:09:16.270Z,4.55
2022-09-14T00:11:46.465Z,9.10
2022-09-14T00:14:14.844Z,7.78
2022-09-14T00:16:45.368Z,5.50
2022-09-14T00:19:18.520Z,6.55
2022-09-14T00:21:52.351Z,6.45
2022-09-14T00:24:20.484Z,4.45
2022-09-14T00:26:49.928Z,6.65
2022-09-14T00:29:18.186Z,9.75
2022-09-14T00:31:46.556Z,8.73
2022-09-14T00:34:16.799Z,8.70
2022-09-14T00:36:47.421Z,6.70
2022-09-14T00:39:16.406Z,6.95
2022-09-14T00:41:46.558Z,6.20
2022-09-14T00:44:52.636Z,9.23
2022-09-14T00:47:22.095Z,4.85
2022-09-14T00:49:52.609Z,6.53
2022-09-14T00:52:24.501Z,6.63
2022-09-14T00:54:54.386Z,9.10
2022-09-14T00:57:23.734Z,8.43
2022-09-14T00:59:53.755Z,6.15
2022-09-14T01:02:24.991Z,8.40
2022-09-14T01:04:53.891Z,6.07
2022-09-14T01:07:32.770Z,5.00
2022-09-14T01:10:09.674Z,9.35
2022-09-14T01:12:50.169Z,7.07
2022-09-14T01:15:26.536Z,7.55
2022-09-14T01:18:04.528Z,7.97
2022-09-14T01:20:36.814Z,7.50
2022-09-14T01:23:14.535Z,11.30
2022-09-14T01:26:19.195Z,5.25
2022-09-14T01:28:56.007Z,4.95
2022-09-14T01:31:32.144Z,7.30
2022-09-14T01:34:08.548Z,7.95
2022-09-14T01:36:40.295Z,4.18
2022-09-14T01:39:09.504Z,5.47
2022-09-14T01:41:39.976Z,7.97
2022-09-14T01:44:13.604Z,8.40
2022-09-14T01:46:45.700Z,7.30
2022-09-14T01:49:18.640Z,6.40
2022-09-14T01:51:50.326Z,6.00
2022-09-14T01:54:23.595Z,10.63
2022-09-14T01:56:56.415Z,6.03
2022-09-14T01:59:29.202Z,7.47
2022-09-14T02:04:32.694Z,8.25
2022-09-14T02:07:00.700Z,6.70
2022-09-14T02:09:28.807Z,6.90
2022-09-14T02:12:00.810Z,7.13
2022-09-14T02:14:31.743Z,4.43
2022-09-14T02:17:00.029Z,7.32
2022-09-14T02:19:34.605Z,7.20
2022-09-14T02:22:02.650Z,6.57
2022-09-14T02:24:31.064Z,6.55
2022-09-14T02:27:00.623Z,6.85
2022-09-14T02:29:30.064Z,6.32
2022-09-14T02:32:16.368Z,5.72
2022-09-14T02:34:55.545Z,6.70
2022-09-14T02:37:32.733Z,8.75
2022-09-14T02:40:09.305Z,6.50
2022-09-14T02:42:46.476Z,6.13
2022-09-14T02:45:22.285Z,7.57
2022-09-14T02:47:57.794Z,7.93
2022-09-14T02:50:36.049Z,7.65
2022-09-14T02:53:09.755Z,7.30
2022-09-14T02:55:42.871Z,6.38
2022-09-14T02:58:12.991Z,6.10
2022-09-14T03:00:45.441Z,6.97
2022-09-14T03:03:16.199Z,5.97
2022-09-14T03:05:44.343Z,4.28
2022-09-14T03:08:12.812Z,10.38
2022-09-14T03:10:43.445Z,6.05
2022-09-14T03:13:12.324Z,6.10
2022-09-14T03:15:41.974Z,9.60
2022-09-14T03:18:14.325Z,5.22
2022-09-14T03:20:43.012Z,6.68
2022-09-14T03:23:12.181Z,5.10
2022-09-14T03:25:42.505Z,5.00
2022-09-14T03:28:12.106Z,6.35
2022-09-14T03:30:40.199Z,6.28
2022-09-14T03:33:09.688Z,5.90
2022-09-14T03:35:37.678Z,8.63
2022-09-14T03:38:05.656Z,6.50
2022-09-14T03:40:33.693Z,9.15
2022-09-14T03:43:01.771Z,6.43
2022-09-14T03:45:29.724Z,7.65
2022-09-14T03:48:00.764Z,6.00
2022-09-14T03:50:30.162Z,6.63
2022-09-14T03:52:58.127Z,7.05
2022-09-14T03:55:29.045Z,4.80
2022-09-14T03:57:59.972Z,8.30
2022-09-14T04:00:30.218Z,3.85
2022-09-14T04:03:00.886Z,7.55
2022-09-14T04:05:30.295Z,7.10
2022-09-14T04:07:58.263Z,11.30
2022-09-14T04:10:26.251Z,6.75
2022-09-14T04:12:54.247Z,8.75
2022-09-14T04:15:22.347Z,8.80
2022-09-14T04:17:51.285Z,8.73
2022-09-14T04:20:19.396Z,8.02
2022-09-14T04:22:48.828Z,10.95
2022-09-14T04:25:17.086Z,8.35
2022-09-14T04:27:55.008Z,7.63
2022-09-14T04:30:32.392Z,8.60
2022-09-14T04:33:00.377Z,9.90
2022-09-14T04:35:28.382Z,12.45
2022-09-14T04:37:57.825Z,11.60
2022-09-14T04:40:26.089Z,10.88
2022-09-14T04:42:54.133Z,11.38
2022-09-14T04:45:22.096Z,11.73
2022-09-14T04:47:50.570Z,10.15
2022-09-14T04:50:18.510Z,10.00
2022-09-14T04:52:46.540Z,12.52
2022-09-14T04:55:16.170Z,10.05
2022-09-14T04:57:44.174Z,9.80
2022-09-14T05:00:13.189Z,8.70
2022-09-14T05:02:42.236Z,10.18
2022-09-14T05:05:10.548Z,12.50
2022-09-14T05:07:38.523Z,9.13
2022-09-14T05:10:07.627Z,12.02
2022-09-14T05:12:36.923Z,10.38
2022-09-14T05:15:05.512Z,8.00
2022-09-14T05:17:35.187Z,6.75
2022-09-14T05:20:03.886Z,7.90
2022-09-14T05:22:31.986Z,11.75
2022-09-14T05:24:59.889Z,10.27
2022-09-14T05:27:27.823Z,10.40
2022-09-14T05:29:57.182Z,10.63
2022-09-14T05:32:25.295Z,9.43
2022-09-14T05:34:53.242Z,11.35
2022-09-14T05:37:21.212Z,9.98
2022-09-14T05:39:51.586Z,7.80
2022-09-14T05:42:19.619Z,8.90
2022-09-14T05:44:47.689Z,6.53
2022-09-14T05:47:17.022Z,11.98
2022-09-14T05:49:45.061Z,9.63
2022-09-14T05:52:13.043Z,12.07
2022-09-14T05:54:40.958Z,9.50
2022-09-14T05:57:11.511Z,10.52
2022-09-14T05:59:39.464Z,8.48
2022-09-14T06:02:07.696Z,12.23
2022-09-14T06:04:39.902Z,12.50
2022-09-14T06:07:18.533Z,11.20
2022-09-14T06:09:49.268Z,7.95
2022-09-14T06:12:17.294Z,8.60
2022-09-14T06:14:45.197Z,13.52
2022-09-14T06:17:13.308Z,9.90
2022-09-14T06:19:42.748Z,8.75
2022-09-14T06:22:10.768Z,10.32
2022-09-14T06:24:38.849Z,10.88
2022-09-14T06:27:10.211Z,7.38
2022-09-14T06:29:38.214Z,9.63
2022-09-14T06:32:06.654Z,10.40
2022-09-14T06:34:34.642Z,10.68
2022-09-14T06:37:04.038Z,11.63
2022-09-14T06:39:31.986Z,9.23
2022-09-14T06:41:59.988Z,8.23
2022-09-14T06:44:27.944Z,10.00
2022-09-14T06:46:55.968Z,8.18
2022-09-14T06:49:23.955Z,9.75
2022-09-14T06:51:54.688Z,7.03
2022-09-14T06:54:24.788Z,7.97
2022-09-14T06:56:52.806Z,9.57
2022-09-14T06:59:21.516Z,7.47
2022-09-14T07:01:49.802Z,7.00
2022-09-14T07:04:18.370Z,8.63
2022-09-14T07:06:50.997Z,8.43
2022-09-14T07:09:20.335Z,9.20
2022-09-14T07:11:50.198Z,8.85
2022-09-14T07:14:20.212Z,9.73
2022-09-14T07:16:48.139Z,11.45
2022-09-14T07:19:16.459Z,11.23
2022-09-14T07:21:44.464Z,7.68
2022-09-14T07:24:14.855Z,8.93
2022-09-14T07:26:43.882Z,7.72
2022-09-14T07:29:18.041Z,7.35
2022-09-14T07:31:48.107Z,10.43
2022-09-14T07:34:16.340Z,7.88
2022-09-14T07:36:44.870Z,8.82
2022-09-14T07:39:16.171Z,9.73
2022-09-14T07:41:44.615Z,5.57
2022-09-14T07:44:17.702Z,7.25
2022-09-14T07:46:46.822Z,6.65
2022-09-14T07:49:16.215Z,7.80
2022-09-14T07:51:44.431Z,6.90
2022-09-14T07:54:14.118Z,8.02
2022-09-14T07:56:43.439Z,9.90
2022-09-14T08:02:02.513Z,10.27
2022-09-14T08:04:30.522Z,9.88
2022-09-14T08:06:58.533Z,10.38
2022-09-14T08:09:26.860Z,9.10
2022-09-14T08:11:54.845Z,7.13
2022-09-14T08:14:22.843Z,10.38
2022-09-14T08:16:50.940Z,12.43
2022-09-14T08:19:20.945Z,11.95
2022-09-14T08:21:49.483Z,10.02
2022-09-14T08:24:18.994Z,9.57
2022-09-14T08:26:47.526Z,8.70
2022-09-14T08:29:16.422Z,11.02
2022-09-14T08:31:45.941Z,7.85
2022-09-14T08:34:15.464Z,12.38
2022-09-14T08:36:46.143Z,10.57
2022-09-14T08:39:15.736Z,10.18
2022-09-14T08:41:51.493Z,11.15
2022-09-14T08:44:23.276Z,9.93
2022-09-14T08:46:55.304Z,9.82
2022-09-14T08:49:32.132Z,9.37
2022-09-14T08:52:05.409Z,9.98
2022-09-14T08:54:37.588Z,10.10
2022-09-14T08:57:13.628Z,8.77
2022-09-14T08:59:49.181Z,14.82
2022-09-14T09:02:37.965Z,8.80
2022-09-14T09:05:24.954Z,8.60
2022-09-14T09:08:01.321Z,13.00
2022-09-14T09:10:30.792Z,12.32
2022-09-14T09:13:01.467Z,13.38
2022-09-14T09:15:36.964Z,9.93
2022-09-14T09:18:08.735Z,7.45
2022-09-14T09:20:41.646Z,9.70
2022-09-14T09:25:57.581Z,7.47
2022-09-14T09:28:27.235Z,9.90
2022-09-14T09:30:57.417Z,9.48
2022-09-14T09:33:28.136Z,8.15
2022-09-14T09:35:56.999Z,10.95
2022-09-14T09:38:30.181Z,10.48
2022-09-14T09:41:01.720Z,10.23
2022-09-14T09:43:48.315Z,11.85
2022-09-14T09:46:18.738Z,11.85
2022-09-14T09:48:48.326Z,10.13
2022-09-14T09:51:23.564Z,10.77
2022-09-14T09:53:56.342Z,12.82
2022-09-14T09:56:26.787Z,8.75
2022-09-14T09:58:54.905Z,9.45
2022-09-14T10:01:28.180Z,14.07
2022-09-14T10:04:06.557Z,11.43
2022-09-14T10:06:43.903Z,10.55
2022-09-14T10:09:18.309Z,8.82
2022-09-14T10:11:47.850Z,7.72
2022-09-14T10:14:25.511Z,8.95
2022-09-14T10:16:53.917Z,8.82
2022-09-14T10:19:24.651Z,8.32
2022-09-14T10:22:20.940Z,7.95
2022-09-14T10:24:59.817Z,7.82
2022-09-14T10:27:41.446Z,10.23
2022-09-14T10:30:15.773Z,7.57
2022-09-14T10:32:47.244Z,9.50
2022-09-14T10:35:17.550Z,8.25
2022-09-14T10:38:01.531Z,6.53
2022-09-14T10:40:37.257Z,8.07
2022-09-14T10:43:16.115Z,11.30
2022-09-14T10:45:50.972Z,7.03
2022-09-14T10:48:47.762Z,9.02
2022-09-14T10:51:36.076Z,9.02
2022-09-14T10:54:16.168Z,12.05
2022-09-14T10:57:02.617Z,9.77
2022-09-14T10:59:38.444Z,9.30
2022-09-14T11:02:26.849Z,8.90
2022-09-14T11:05:13.062Z,8.55
2022-09-14T11:07:52.699Z,9.90
2022-09-14T11:10:28.294Z,10.23
2022-09-14T11:13:27.340Z,9.75
2022-09-14T11:16:06.604Z,11.32
2022-09-14T11:18:47.159Z,8.88
2022-09-14T11:21:26.387Z,11.80
2022-09-14T11:23:57.908Z,10.77
2022-09-14T11:26:31.698Z,8.10
2022-09-14T11:29:10.368Z,9.13
2022-09-14T11:32:10.473Z,12.02
2022-09-14T11:34:44.617Z,7.30
2022-09-14T11:37:15.706Z,10.40
2022-09-14T11:39:48.323Z,10.25
2022-09-14T11:42:33.465Z,8.82
2022-09-14T11:45:08.293Z,9.13
2022-09-14T11:47:44.290Z,7.90
2022-09-14T11:50:21.031Z,7.38
2022-09-14T11:52:56.694Z,8.82
2022-09-14T11:55:24.803Z,8.18
2022-09-14T11:57:53.937Z,8.13
2022-09-14T12:00:46.083Z,8.20
2022-09-14T12:03:17.663Z,8.60
2022-09-14T12:05:46.868Z,9.98
2022-09-14T12:08:38.301Z,12.18
2022-09-14T12:11:26.391Z,7.93
2022-09-14T12:14:30.406Z,9.88
2022-09-14T12:17:38.455Z,15.52
2022-09-14T12:20:44.051Z,8.32
2022-09-14T12:23:46.643Z,10.65
2022-09-14T12:26:39.870Z,9.60
2022-09-14T12:32:22.475Z,9.15
2022-09-14T12:35:30.083Z,11.27
2022-09-14T12:37:58.173Z,9.82
2022-09-14T12:40:37.920Z,10.07
2022-09-14T12:43:49.132Z,13.57
2022-09-14T12:46:40.421Z,10.55
2022-09-14T12:49:37.400Z,10.52
2022-09-14T12:52:20.571Z,12.88
2022-09-14T12:55:02.013Z,13.40
2022-09-14T12:57:43.559Z,10.63
2022-09-14T13:00:14.702Z,12.20
2022-09-14T13:03:16.580Z,12.95
2022-09-14T13:05:46.352Z,12.27
2022-09-14T13:08:21.797Z,12.77
2022-09-14T13:10:52.488Z,10.10
2022-09-14T13:13:25.256Z,9.88
2022-09-14T13:15:57.079Z,10.77
2022-09-14T13:18:34.076Z,10.68
2022-09-14T13:21:03.590Z,8.98
2022-09-14T13:23:38.557Z,8.88
2022-09-14T13:26:11.775Z,9.15
2022-09-14T13:28:43.208Z,6.47
2022-09-14T13:31:15.007Z,9.50
2022-09-14T13:33:49.831Z,7.72
2022-09-14T13:36:21.276Z,8.68
2022-09-14T13:38:51.464Z,10.50
2022-09-14T13:41:23.042Z,7.75
2022-09-14T13:43:54.370Z,6.07
2022-09-14T13:46:24.154Z,9.25
2022-09-14T13:48:53.562Z,7.95
2022-09-14T13:51:25.406Z,8.05
2022-09-14T13:53:56.813Z,9.82
2022-09-14T13:56:31.024Z,8.35
2022-09-14T13:59:21.499Z,5.30
2022-09-14T14:01:56.042Z,7.28
2022-09-14T14:04:28.529Z,8.63
2022-09-14T14:07:09.643Z,8.45
2022-09-14T14:09:46.106Z,9.43
2022-09-14T14:12:24.003Z,9.90
2022-09-14T14:14:59.583Z,8.15
2022-09-14T14:17:37.761Z,5.53
2022-09-14T14:20:35.412Z,7.72
2022-09-14T14:23:21.164Z,7.30
2022-09-14T14:25:54.329Z,9.93
2022-09-14T14:28:26.161Z,8.93
2022-09-14T14:30:55.385Z,9.32
2022-09-14T14:33:23.841Z,10.63
2022-09-14T14:35:54.481Z,7.90
2022-09-14T14:38:23.744Z,7.65
2022-09-14T14:40:55.259Z,5.25
2022-09-14T14:43:25.878Z,5.78
2022-09-14T14:45:56.367Z,7.35
2022-09-14T14:48:24.928Z,4.90
2022-09-14T14:50:55.489Z,6.47
2022-09-14T14:53:26.998Z,6.57
2022-09-14T14:55:57.029Z,6.60
2022-09-14T14:58:25.907Z,11.40
2022-09-14T15:00:54.677Z,8.07
2022-09-14T15:03:23.062Z,9.00
2022-09-14T15:05:51.133Z,7.53
2022-09-14T15:08:20.860Z,8.10
2022-09-14T15:10:49.674Z,10.38
2022-09-14T15:13:21.042Z,5.55
2022-09-14T15:15:50.411Z,7.18
2022-09-14T15:18:18.476Z,8.85
2022-09-14T15:20:46.569Z,7.93
2022-09-14T15:23:15.250Z,7.13
2022-09-14T15:25:43.202Z,9.05
2022-09-14T15:28:11.298Z,7.80
2022-09-14T15:30:41.721Z,8.02
2022-09-14T15:33:09.762Z,8.20
2022-09-14T15:35:39.062Z,4.70
2022-09-14T15:38:07.359Z,7.43
2022-09-14T15:40:38.190Z,7.10
2022-09-14T15:43:06.233Z,6.60
2022-09-14T15:45:34.267Z,8.15
2022-09-14T15:48:03.998Z,8.57
2022-09-14T15:50:31.995Z,6.80
2022-09-14T15:53:02.704Z,9.57
2022-09-14T15:55:30.964Z,6.43
2022-09-14T15:57:58.894Z,7.43
2022-09-14T16:00:26.782Z,8.75
2022-09-14T16:02:54.757Z,6.55
2022-09-14T16:05:24.066Z,6.20
2022-09-14T16:07:54.086Z,5.88
2022-09-14T16:10:22.719Z,7.25
2022-09-14T16:12:50.960Z,7.43
2022-09-14T16:15:18.955Z,8.68
2022-09-14T16:17:50.981Z,7.82
2022-09-14T16:20:19.201Z,8.27
2022-09-14T16:22:49.603Z,7.50
2022-09-14T16:25:17.954Z,7.68
2022-09-14T16:27:46.373Z,6.00
2022-09-14T16:30:32.899Z,8.70
2022-09-14T16:33:01.804Z,12.52
2022-09-14T16:35:30.098Z,8.38
2022-09-14T16:37:59.483Z,8.73
2022-09-14T16:40:27.892Z,10.35
2022-09-14T16:42:55.855Z,8.70
2022-09-14T16:45:23.926Z,8.10
2022-09-14T16:47:52.480Z,6.80
2022-09-14T16:50:20.393Z,8.05
2022-09-14T16:52:48.341Z,8.05
2022-09-14T16:55:18.012Z,11.88
2022-09-14T16:57:46.057Z,7.82
2022-09-14T17:00:17.310Z,8.77
2022-09-14T17:02:45.601Z,11.40
2022-09-14T17:05:13.967Z,11.00
2022-09-14T17:07:42.037Z,8.27
2022-09-14T17:10:10.861Z,11.05
2022-09-14T17:12:40.207Z,8.93
2022-09-14T17:15:10.060Z,10.98
2022-09-14T17:17:38.125Z,10.02
2022-09-14T17:20:07.187Z,11.75
2022-09-14T17:22:35.256Z,9.35
2022-09-14T17:25:03.182Z,8.35
2022-09-14T17:27:31.225Z,10.40
2022-09-14T17:30:00.612Z,11.60
2022-09-14T17:32:28.596Z,14.65
2022-09-14T17:34:56.688Z,8.48
2022-09-14T17:37:24.611Z,10.82
2022-09-14T17:39:52.732Z,12.32
2022-09-14T17:42:20.804Z,11.55
2022-09-14T17:44:48.750Z,10.23
2022-09-14T17:47:20.873Z,11.00
2022-09-14T17:49:48.873Z,8.35
2022-09-14T17:52:19.357Z,11.43
2022-09-14T17:54:47.359Z,11.93
2022-09-14T17:57:18.739Z,11.43
2022-09-14T17:59:47.267Z,12.00
2022-09-14T18:02:15.313Z,10.63
2022-09-14T18:04:48.532Z,9.95
2022-09-14T18:07:16.641Z,10.80
2022-09-14T18:09:44.592Z,10.65
2022-09-14T18:12:15.799Z,11.43
2022-09-14T18:14:43.822Z,14.30
2022-09-14T18:17:12.724Z,13.32
2022-09-14T18:19:40.913Z,12.75
2022-09-14T18:22:10.328Z,11.10
2022-09-14T18:24:38.389Z,10.02
2022-09-14T18:27:06.576Z,11.40
2022-09-14T18:29:34.505Z,10.65
2022-09-14T18:32:02.856Z,11.75
2022-09-14T18:34:30.763Z,10.73
2022-09-14T18:36:58.667Z,9.43
2022-09-14T18:39:28.056Z,10.75
2022-09-14T18:41:56.364Z,11.85
2022-09-14T18:44:24.819Z,11.52
2022-09-14T18:46:52.889Z,14.48
2022-09-14T18:49:21.073Z,12.50
2022-09-14T18:51:49.145Z,14.10
2022-09-14T18:54:17.169Z,9.77
2022-09-14T18:56:46.762Z,12.98
2022-09-14T18:59:16.412Z,11.95
2022-09-14T19:01:44.873Z,11.80
2022-09-14T19:04:15.547Z,11.13
2022-09-14T19:06:44.625Z,10.52
2022-09-14T19:09:15.601Z,11.53
2022-09-14T19:11:43.578Z,13.13
2022-09-14T19:14:15.348Z,12.05
2022-09-14T19:16:43.618Z,11.30
2022-09-14T19:19:14.575Z,12.20
2022-09-14T19:21:43.057Z,10.75
2022-09-14T19:24:14.051Z,14.93
2022-09-14T19:26:45.207Z,11.90
2022-09-14T19:29:20.189Z,15.30
2022-09-14T19:31:51.620Z,11.07
2022-09-14T19:34:20.424Z,14.85
2022-09-14T19:36:48.424Z,14.30
2022-09-14T19:39:16.737Z,15.23
2022-09-14T19:41:44.933Z,15.77
2022-09-14T19:44:13.456Z,13.30
2022-09-14T19:46:43.189Z,14.10
2022-09-14T19:49:15.932Z,12.55
2022-09-14T19:51:44.275Z,12.38
2022-09-14T19:54:12.812Z,15.75
2022-09-14T19:56:40.871Z,13.65
2022-09-14T19:59:09.757Z,12.38
2022-09-14T20:01:39.732Z,9.38
2022-09-14T20:04:10.506Z,17.13
2022-09-14T20:06:40.947Z,14.63
2022-09-14T20:09:10.509Z,14.38
2022-09-14T20:11:40.251Z,12.10
2022-09-14T20:14:12.308Z,13.30
2022-09-14T20:16:42.494Z,12.93
2022-09-14T20:19:13.965Z,11.57
2022-09-14T20:21:42.471Z,14.10
2022-09-14T20:24:16.650Z,10.43
2022-09-14T20:26:45.700Z,11.82
2022-09-14T20:29:14.344Z,12.13
2022-09-14T20:31:42.538Z,11.77
2022-09-14T20:34:12.834Z,10.60
2022-09-14T20:36:41.361Z,12.07
2022-09-14T20:39:09.848Z,14.10
2022-09-14T20:41:38.259Z,15.50
2022-09-14T20:44:06.959Z,14.57
2022-09-14T20:46:38.678Z,13.98
2022-09-14T20:49:09.702Z,12.05
2022-09-14T20:51:39.620Z,12.48
2022-09-14T20:54:08.818Z,13.27
2022-09-14T20:56:37.365Z,14.15
2022-09-14T20:59:07.489Z,12.10
2022-09-14T21:01:39.435Z,14.35
2022-09-14T21:04:09.783Z,13.77
2022-09-14T21:06:41.465Z,15.13
2022-09-14T21:09:10.658Z,13.32
2022-09-14T21:11:38.968Z,12.68
2022-09-14T21:14:09.984Z,12.10
2022-09-14T21:16:42.910Z,13.63
2022-09-14T21:19:16.035Z,13.70
2022-09-14T21:21:45.559Z,14.73
2022-09-14T21:24:14.329Z,14.60
2022-09-14T21:26:44.562Z,13.45
2022-09-14T21:29:14.430Z,15.00
2022-09-14T21:31:42.683Z,15.35
2022-09-14T21:34:12.188Z,11.80
2022-09-14T21:36:42.978Z,13.48
2022-09-14T21:39:14.493Z,12.82
2022-09-14T21:41:44.965Z,15.70
2022-09-14T21:44:14.014Z,15.52
2022-09-14T21:46:43.139Z,14.40
2022-09-14T21:49:15.210Z,13.93
2022-09-14T21:51:44.401Z,13.43
2022-09-14T21:54:16.632Z,16.05
2022-09-14T21:56:46.767Z,18.10
2022-09-14T21:59:17.121Z,15.85
2022-09-14T22:01:49.115Z,12.73
2022-09-14T22:04:19.399Z,16.38
2022-09-14T22:06:47.812Z,17.35
2022-09-14T22:09:19.218Z,17.88
2022-09-14T22:11:47.381Z,16.58
2022-09-14T22:14:18.171Z,17.88
2022-09-14T22:16:46.591Z,17.75
2022-09-14T22:19:16.554Z,14.27
2022-09-14T22:21:45.325Z,16.35
2022-09-14T22:24:20.412Z,14.40
2022-09-14T22:26:50.332Z,19.55
2022-09-14T22:29:19.548Z,17.63
2022-09-14T22:31:48.606Z,17.88
2022-09-14T22:34:17.693Z,18.52
2022-09-14T22:36:48.764Z,17.77
2022-09-14T22:39:18.118Z,19.02
2022-09-14T22:41:46.077Z,17.20
2022-09-14T22:44:14.343Z,17.42
2022-09-14T22:46:42.270Z,17.50
2022-09-14T22:49:10.433Z,18.25
2022-09-14T22:51:38.428Z,19.95
2022-09-14T22:54:07.351Z,18.35
2022-09-14T22:56:40.465Z,17.92
2022-09-14T22:59:10.679Z,17.83
2022-09-14T23:01:42.557Z,16.40
2022-09-14T23:04:12.791Z,18.30
2022-09-14T23:06:43.458Z,18.50
2022-09-14T23:09:13.840Z,18.42
2022-09-14T23:11:44.681Z,17.88
2022-09-14T23:14:12.912Z,17.48
2022-09-14T23:16:40.944Z,15.98
2022-09-14T23:19:09.344Z,18.90
2022-09-14T23:21:37.312Z,17.00
2022-09-14T23:24:08.177Z,15.93
2022-09-14T23:26:36.217Z,19.75
2022-09-14T23:29:09.197Z,17.27
2022-09-14T23:31:37.172Z,17.40
2022-09-14T23:34:06.642Z,15.05
2022-09-14T23:36:34.634Z,17.33
2022-09-14T23:39:02.791Z,18.23
2022-09-14T23:41:30.893Z,17.88
2022-09-14T23:43:58.883Z,15.98
2022-09-14T23:46:28.352Z,17.20
2022-09-14T23:48:56.372Z,16.42
2022-09-14T23:51:24.908Z,21.15
2022-09-14T23:53:52.910Z,16.65
2022-09-14T23:56:20.884Z,18.13
2022-09-14T23:58:49.228Z,14.63
